sensor_id;sensor_type;location;lat;lon;timestamp;temperature;humidity
5023;DHT22;2530;47.990;7.866;2023-02-01T00:02:15;5.90;99.90
5023;DHT22;2530;47.990;7.866;2023-02-01T00:04:41;5.80;99.90
5023;DHT22;2530;47.990;7.866;2023-02-01T00:07:06;5.80;99.90
5023;DHT22;2530;47.990;7.866;2023-02-01T00:09:32;5.80;99.90
5023;DHT22;2530;47.990;7.866;2023-02-01T00:11:57;5.80;99.90
5023;DHT22;2530;47.990;7.866;2023-02-01T00:14:27;5.90;99.90
5023;DHT22;2530;47.990;7.866;2023-02-01T00:16:53;5.90;99.90
5023;DHT22;2530;47.990;7.866;2023-02-01T00:19:18;5.90;99.90
5023;DHT22;2530;47.990;7.866;2023-02-01T00:21:44;5.80;99.90
5023;DHT22;2530;47.990;7.866;2023-02-01T00:24:11;5.80;99.90
5023;DHT22;2530;47.990;7.866;2023-02-01T00:26:44;5.70;99.90
5023;DHT22;2530;47.990;7.866;2023-02-01T00:29:20;5.80;99.90
5023;DHT22;2530;47.990;7.866;2023-02-01T00:31:46;5.70;99.90
5023;DHT22;2530;47.990;7.866;2023-02-01T00:34:15;5.70;99.90
5023;DHT22;2530;47.990;7.866;2023-02-01T00:36:42;5.80;99.90
5023;DHT22;2530;47.990;7.866;2023-02-01T00:39:08;5.70;99.90
5023;DHT22;2530;47.990;7.866;2023-02-01T00:41:33;5.70;99.90
5023;DHT22;2530;47.990;7.866;2023-02-01T00:43:59;5.70;99.90
5023;DHT22;2530;47.990;7.866;2023-02-01T00:46:25;5.70;99.90
5023;DHT22;2530;47.990;7.866;2023-02-01T00:48:51;5.70;99.90
5023;DHT22;2530;47.990;7.866;2023-02-01T00:51:19;5.70;99.90
5023;DHT22;2530;47.990;7.866;2023-02-01T00:53:45;5.70;99.90
5023;DHT22;2530;47.990;7.866;2023-02-01T00:56:11;5.70;99.90
5023;DHT22;2530;47.990;7.866;2023-02-01T00:58:36;5.70;99.90
5023;DHT22;2530;47.990;7.866;2023-02-01T01:01:09;5.60;99.90
5023;DHT22;2530;47.990;7.866;2023-02-01T01:03:37;5.70;99.90
5023;DHT22;2530;47.990;7.866;2023-02-01T01:06:06;5.70;99.90
5023;DHT22;2530;47.990;7.866;2023-02-01T01:08:32;5.70;99.90
5023;DHT22;2530;47.990;7.866;2023-02-01T01:10:58;5.70;99.90
5023;DHT22;2530;47.990;7.866;2023-02-01T01:13:23;5.70;99.90
5023;DHT22;2530;47.990;7.866;2023-02-01T01:15:49;5.70;99.90
5023;DHT22;2530;47.990;7.866;2023-02-01T01:18:14;5.60;99.90
5023;DHT22;2530;47.990;7.866;2023-02-01T01:20:40;5.70;99.90
5023;DHT22;2530;47.990;7.866;2023-02-01T01:23:07;5.70;99.90
5023;DHT22;2530;47.990;7.866;2023-02-01T01:25:36;5.70;99.90
5023;DHT22;2530;47.990;7.866;2023-02-01T01:28:02;5.70;99.90
5023;DHT22;2530;47.990;7.866;2023-02-01T01:30:27;5.70;99.90
5023;DHT22;2530;47.990;7.866;2023-02-01T01:32:53;5.70;99.90
5023;DHT22;2530;47.990;7.866;2023-02-01T01:35:18;5.60;99.90
5023;DHT22;2530;47.990;7.866;2023-02-01T01:37:44;5.60;99.90
5023;DHT22;2530;47.990;7.866;2023-02-01T01:40:10;5.50;99.90
5023;DHT22;2530;47.990;7.866;2023-02-01T01:42:41;5.50;99.90
5023;DHT22;2530;47.990;7.866;2023-02-01T01:45:31;5.60;99.90
5023;DHT22;2530;47.990;7.866;2023-02-01T01:48:00;5.50;99.90
5023;DHT22;2530;47.990;7.866;2023-02-01T01:50:33;5.50;99.90
5023;DHT22;2530;47.990;7.866;2023-02-01T01:53:03;5.50;99.90
5023;DHT22;2530;47.990;7.866;2023-02-01T01:55:33;5.50;99.90
5023;DHT22;2530;47.990;7.866;2023-02-01T01:58:08;5.50;99.90
5023;DHT22;2530;47.990;7.866;2023-02-01T02:00:35;5.50;99.90
5023;DHT22;2530;47.990;7.866;2023-02-01T02:03:19;5.60;99.90
5023;DHT22;2530;47.990;7.866;2023-02-01T02:05:46;5.60;99.90
5023;DHT22;2530;47.990;7.866;2023-02-01T02:08:14;5.60;99.90
5023;DHT22;2530;47.990;7.866;2023-02-01T02:10:39;5.60;99.90
5023;DHT22;2530;47.990;7.866;2023-02-01T02:13:23;5.60;99.90
5023;DHT22;2530;47.990;7.866;2023-02-01T02:24:53;5.60;99.90
5023;DHT22;2530;47.990;7.866;2023-02-01T02:35:57;5.60;99.90
5023;DHT22;2530;47.990;7.866;2023-02-01T02:41:17;5.50;99.90
5023;DHT22;2530;47.990;7.866;2023-02-01T02:44:21;5.60;99.90
5023;DHT22;2530;47.990;7.866;2023-02-01T02:47:16;5.60;99.90
5023;DHT22;2530;47.990;7.866;2023-02-01T02:49:51;5.70;99.90
5023;DHT22;2530;47.990;7.866;2023-02-01T02:52:50;5.70;99.90
5023;DHT22;2530;47.990;7.866;2023-02-01T02:55:37;5.60;99.90
5023;DHT22;2530;47.990;7.866;2023-02-01T02:58:05;5.60;99.90
5023;DHT22;2530;47.990;7.866;2023-02-01T03:00:51;5.70;99.90
5023;DHT22;2530;47.990;7.866;2023-02-01T03:03:38;5.60;99.90
5023;DHT22;2530;47.990;7.866;2023-02-01T03:06:23;5.50;99.90
5023;DHT22;2530;47.990;7.866;2023-02-01T03:08:49;5.60;99.90
5023;DHT22;2530;47.990;7.866;2023-02-01T03:11:19;5.60;99.90
5023;DHT22;2530;47.990;7.866;2023-02-01T03:13:57;5.60;99.90
5023;DHT22;2530;47.990;7.866;2023-02-01T03:16:28;5.60;99.90
5023;DHT22;2530;47.990;7.866;2023-02-01T03:19:05;5.50;99.90
5023;DHT22;2530;47.990;7.866;2023-02-01T03:21:45;5.60;99.90
5023;DHT22;2530;47.990;7.866;2023-02-01T03:24:20;5.50;99.90
5023;DHT22;2530;47.990;7.866;2023-02-01T03:26:53;5.60;99.90
5023;DHT22;2530;47.990;7.866;2023-02-01T03:29:23;5.50;99.90
5023;DHT22;2530;47.990;7.866;2023-02-01T03:31:50;5.50;99.90
5023;DHT22;2530;47.990;7.866;2023-02-01T03:34:16;5.50;99.90
5023;DHT22;2530;47.990;7.866;2023-02-01T03:36:59;5.50;99.90
5023;DHT22;2530;47.990;7.866;2023-02-01T03:42:18;5.40;99.90
5023;DHT22;2530;47.990;7.866;2023-02-01T03:45:07;5.30;99.90
5023;DHT22;2530;47.990;7.866;2023-02-01T03:47:39;5.30;99.90
5023;DHT22;2530;47.990;7.866;2023-02-01T03:50:09;5.20;99.90
5023;DHT22;2530;47.990;7.866;2023-02-01T03:55:17;5.20;99.90
5023;DHT22;2530;47.990;7.866;2023-02-01T03:58:04;5.10;99.90
5023;DHT22;2530;47.990;7.866;2023-02-01T04:00:31;5.20;99.90
5023;DHT22;2530;47.990;7.866;2023-02-01T04:02:57;5.10;99.90
5023;DHT22;2530;47.990;7.866;2023-02-01T04:05:23;5.10;99.90
5023;DHT22;2530;47.990;7.866;2023-02-01T04:07:48;5.10;99.90
5023;DHT22;2530;47.990;7.866;2023-02-01T04:10:14;4.90;99.90
5023;DHT22;2530;47.990;7.866;2023-02-01T04:12:40;4.90;99.90
5023;DHT22;2530;47.990;7.866;2023-02-01T04:15:07;5.00;99.90
5023;DHT22;2530;47.990;7.866;2023-02-01T04:17:32;5.00;99.90
5023;DHT22;2530;47.990;7.866;2023-02-01T04:19:58;4.90;99.90
5023;DHT22;2530;47.990;7.866;2023-02-01T04:22:23;4.90;99.90
5023;DHT22;2530;47.990;7.866;2023-02-01T04:24:49;4.90;99.90
5023;DHT22;2530;47.990;7.866;2023-02-01T04:27:14;5.00;99.90
5023;DHT22;2530;47.990;7.866;2023-02-01T04:29:40;5.00;99.90
5023;DHT22;2530;47.990;7.866;2023-02-01T04:32:06;5.00;99.90
5023;DHT22;2530;47.990;7.866;2023-02-01T04:34:32;4.90;99.90
5023;DHT22;2530;47.990;7.866;2023-02-01T04:36:57;4.90;99.90
5023;DHT22;2530;47.990;7.866;2023-02-01T04:39:23;4.80;99.90
5023;DHT22;2530;47.990;7.866;2023-02-01T04:41:48;4.80;99.90
5023;DHT22;2530;47.990;7.866;2023-02-01T04:44:16;4.70;99.90
5023;DHT22;2530;47.990;7.866;2023-02-01T04:46:43;4.70;99.90
5023;DHT22;2530;47.990;7.866;2023-02-01T04:49:09;4.70;99.90
5023;DHT22;2530;47.990;7.866;2023-02-01T04:51:35;4.70;99.90
5023;DHT22;2530;47.990;7.866;2023-02-01T04:54:00;4.60;99.90
5023;DHT22;2530;47.990;7.866;2023-02-01T04:56:26;4.70;99.90
5023;DHT22;2530;47.990;7.866;2023-02-01T04:58:51;4.70;99.90
5023;DHT22;2530;47.990;7.866;2023-02-01T05:01:17;4.70;99.90
5023;DHT22;2530;47.990;7.866;2023-02-01T05:03:43;4.80;99.90
5023;DHT22;2530;47.990;7.866;2023-02-01T05:06:08;4.80;99.90
5023;DHT22;2530;47.990;7.866;2023-02-01T05:08:34;4.90;99.90
5023;DHT22;2530;47.990;7.866;2023-02-01T05:10:59;4.90;99.90
5023;DHT22;2530;47.990;7.866;2023-02-01T05:13:28;4.90;99.90
5023;DHT22;2530;47.990;7.866;2023-02-01T05:16:12;4.90;99.90
5023;DHT22;2530;47.990;7.866;2023-02-01T05:18:37;4.80;99.90
5023;DHT22;2530;47.990;7.866;2023-02-01T05:21:03;4.90;99.90
5023;DHT22;2530;47.990;7.866;2023-02-01T05:23:28;4.90;99.90
5023;DHT22;2530;47.990;7.866;2023-02-01T05:26:01;4.90;99.90
5023;DHT22;2530;47.990;7.866;2023-02-01T05:28:27;4.90;99.90
5023;DHT22;2530;47.990;7.866;2023-02-01T05:30:53;4.90;99.90
5023;DHT22;2530;47.990;7.866;2023-02-01T05:33:19;4.80;99.90
5023;DHT22;2530;47.990;7.866;2023-02-01T05:35:44;4.90;99.90
5023;DHT22;2530;47.990;7.866;2023-02-01T05:38:10;4.80;99.90
5023;DHT22;2530;47.990;7.866;2023-02-01T05:40:35;4.80;99.90
5023;DHT22;2530;47.990;7.866;2023-02-01T05:43:01;4.80;99.90
5023;DHT22;2530;47.990;7.866;2023-02-01T05:45:26;4.70;99.90
5023;DHT22;2530;47.990;7.866;2023-02-01T05:47:52;4.70;99.90
5023;DHT22;2530;47.990;7.866;2023-02-01T05:50:17;4.70;99.90
5023;DHT22;2530;47.990;7.866;2023-02-01T05:52:43;4.70;99.90
5023;DHT22;2530;47.990;7.866;2023-02-01T05:55:09;4.70;99.90
5023;DHT22;2530;47.990;7.866;2023-02-01T05:57:34;4.70;99.90
5023;DHT22;2530;47.990;7.866;2023-02-01T06:00:00;4.70;99.90
5023;DHT22;2530;47.990;7.866;2023-02-01T06:02:26;4.70;99.90
5023;DHT22;2530;47.990;7.866;2023-02-01T06:04:51;4.60;99.90
5023;DHT22;2530;47.990;7.866;2023-02-01T06:07:17;4.70;99.90
5023;DHT22;2530;47.990;7.866;2023-02-01T06:09:43;4.70;99.90
5023;DHT22;2530;47.990;7.866;2023-02-01T06:12:08;4.70;99.90
5023;DHT22;2530;47.990;7.866;2023-02-01T06:14:34;4.70;99.90
5023;DHT22;2530;47.990;7.866;2023-02-01T06:16:59;4.80;99.90
5023;DHT22;2530;47.990;7.866;2023-02-01T06:19:25;4.70;99.90
5023;DHT22;2530;47.990;7.866;2023-02-01T06:21:51;4.70;99.90
5023;DHT22;2530;47.990;7.866;2023-02-01T06:24:16;4.80;99.90
5023;DHT22;2530;47.990;7.866;2023-02-01T06:26:42;4.70;99.90
5023;DHT22;2530;47.990;7.866;2023-02-01T06:29:10;4.70;99.90
5023;DHT22;2530;47.990;7.866;2023-02-01T06:31:36;4.80;99.90
5023;DHT22;2530;47.990;7.866;2023-02-01T06:34:01;4.80;99.90
5023;DHT22;2530;47.990;7.866;2023-02-01T06:36:28;4.80;99.90
5023;DHT22;2530;47.990;7.866;2023-02-01T06:38:54;4.90;99.90
5023;DHT22;2530;47.990;7.866;2023-02-01T06:41:22;4.90;99.90
5023;DHT22;2530;47.990;7.866;2023-02-01T06:43:47;4.90;99.90
5023;DHT22;2530;47.990;7.866;2023-02-01T06:46:13;4.80;99.90
5023;DHT22;2530;47.990;7.866;2023-02-01T06:48:39;4.90;99.90
5023;DHT22;2530;47.990;7.866;2023-02-01T06:51:05;4.90;99.90
5023;DHT22;2530;47.990;7.866;2023-02-01T06:53:31;5.00;99.90
5023;DHT22;2530;47.990;7.866;2023-02-01T06:56:01;4.90;99.90
5023;DHT22;2530;47.990;7.866;2023-02-01T06:58:32;5.00;99.90
5023;DHT22;2530;47.990;7.866;2023-02-01T07:00:58;5.00;99.90
5023;DHT22;2530;47.990;7.866;2023-02-01T07:03:29;5.10;99.90
5023;DHT22;2530;47.990;7.866;2023-02-01T07:05:58;5.20;99.90
5023;DHT22;2530;47.990;7.866;2023-02-01T07:08:30;5.10;99.90
5023;DHT22;2530;47.990;7.866;2023-02-01T07:11:02;5.10;99.90
5023;DHT22;2530;47.990;7.866;2023-02-01T07:13:27;5.10;99.90
5023;DHT22;2530;47.990;7.866;2023-02-01T07:15:53;5.20;99.90
5023;DHT22;2530;47.990;7.866;2023-02-01T07:18:18;5.30;99.90
5023;DHT22;2530;47.990;7.866;2023-02-01T07:20:49;5.30;99.90
5023;DHT22;2530;47.990;7.866;2023-02-01T07:23:15;5.30;99.90
5023;DHT22;2530;47.990;7.866;2023-02-01T07:25:40;5.30;99.90
5023;DHT22;2530;47.990;7.866;2023-02-01T07:28:06;5.30;99.90
5023;DHT22;2530;47.990;7.866;2023-02-01T07:30:31;5.30;99.90
5023;DHT22;2530;47.990;7.866;2023-02-01T07:32:57;5.40;99.90
5023;DHT22;2530;47.990;7.866;2023-02-01T07:35:29;5.40;99.90
5023;DHT22;2530;47.990;7.866;2023-02-01T07:37:54;5.30;99.90
5023;DHT22;2530;47.990;7.866;2023-02-01T07:40:20;5.30;99.90
5023;DHT22;2530;47.990;7.866;2023-02-01T07:42:50;5.20;99.90
5023;DHT22;2530;47.990;7.866;2023-02-01T07:45:15;5.10;99.90
5023;DHT22;2530;47.990;7.866;2023-02-01T07:47:41;5.10;99.90
5023;DHT22;2530;47.990;7.866;2023-02-01T07:50:07;5.10;99.90
5023;DHT22;2530;47.990;7.866;2023-02-01T07:52:33;5.10;99.90
5023;DHT22;2530;47.990;7.866;2023-02-01T07:54:58;5.20;99.90
5023;DHT22;2530;47.990;7.866;2023-02-01T07:57:24;5.10;99.90
5023;DHT22;2530;47.990;7.866;2023-02-01T07:59:49;5.10;99.90
5023;DHT22;2530;47.990;7.866;2023-02-01T08:02:33;5.00;99.90
5023;DHT22;2530;47.990;7.866;2023-02-01T08:04:59;5.10;99.90
5023;DHT22;2530;47.990;7.866;2023-02-01T08:07:24;5.20;99.90
5023;DHT22;2530;47.990;7.866;2023-02-01T08:09:50;5.30;99.90
5023;DHT22;2530;47.990;7.866;2023-02-01T08:12:15;5.40;99.90
5023;DHT22;2530;47.990;7.866;2023-02-01T08:14:41;5.40;99.90
5023;DHT22;2530;47.990;7.866;2023-02-01T08:17:07;5.50;99.90
5023;DHT22;2530;47.990;7.866;2023-02-01T08:19:32;5.60;99.90
5023;DHT22;2530;47.990;7.866;2023-02-01T08:21:58;5.60;99.90
5023;DHT22;2530;47.990;7.866;2023-02-01T08:24:24;5.60;99.90
5023;DHT22;2530;47.990;7.866;2023-02-01T08:26:50;5.60;99.90
5023;DHT22;2530;47.990;7.866;2023-02-01T08:29:16;5.60;99.90
5023;DHT22;2530;47.990;7.866;2023-02-01T08:31:41;5.70;99.90
5023;DHT22;2530;47.990;7.866;2023-02-01T08:34:09;5.70;99.90
5023;DHT22;2530;47.990;7.866;2023-02-01T08:36:35;5.70;99.90
5023;DHT22;2530;47.990;7.866;2023-02-01T08:39:01;5.70;99.90
5023;DHT22;2530;47.990;7.866;2023-02-01T08:41:28;5.70;99.90
5023;DHT22;2530;47.990;7.866;2023-02-01T08:43:55;5.70;99.90
5023;DHT22;2530;47.990;7.866;2023-02-01T08:46:21;5.70;99.90
5023;DHT22;2530;47.990;7.866;2023-02-01T08:48:47;5.60;99.90
5023;DHT22;2530;47.990;7.866;2023-02-01T08:51:14;5.60;99.90
5023;DHT22;2530;47.990;7.866;2023-02-01T08:53:41;5.60;99.90
5023;DHT22;2530;47.990;7.866;2023-02-01T08:56:07;5.70;99.90
5023;DHT22;2530;47.990;7.866;2023-02-01T08:58:33;5.60;99.90
5023;DHT22;2530;47.990;7.866;2023-02-01T09:01:03;5.60;99.90
5023;DHT22;2530;47.990;7.866;2023-02-01T09:03:29;5.40;99.90
5023;DHT22;2530;47.990;7.866;2023-02-01T09:06:03;5.50;99.90
5023;DHT22;2530;47.990;7.866;2023-02-01T09:08:29;5.40;99.90
5023;DHT22;2530;47.990;7.866;2023-02-01T09:11:01;5.40;99.90
5023;DHT22;2530;47.990;7.866;2023-02-01T09:13:27;5.50;99.90
5023;DHT22;2530;47.990;7.866;2023-02-01T09:15:53;5.50;99.90
5023;DHT22;2530;47.990;7.866;2023-02-01T09:18:18;5.50;99.90
5023;DHT22;2530;47.990;7.866;2023-02-01T09:20:44;5.70;99.90
5023;DHT22;2530;47.990;7.866;2023-02-01T09:23:10;5.60;99.90
5023;DHT22;2530;47.990;7.866;2023-02-01T09:25:37;5.60;99.90
5023;DHT22;2530;47.990;7.866;2023-02-01T09:28:04;5.70;99.90
5023;DHT22;2530;47.990;7.866;2023-02-01T09:30:32;5.80;99.90
5023;DHT22;2530;47.990;7.866;2023-02-01T09:32:57;5.90;99.90
5023;DHT22;2530;47.990;7.866;2023-02-01T09:35:23;5.80;99.90
5023;DHT22;2530;47.990;7.866;2023-02-01T09:37:48;5.80;99.90
5023;DHT22;2530;47.990;7.866;2023-02-01T09:40:15;5.70;99.90
5023;DHT22;2530;47.990;7.866;2023-02-01T09:48:16;5.60;99.90
5023;DHT22;2530;47.990;7.866;2023-02-01T09:50:47;5.70;99.90
5023;DHT22;2530;47.990;7.866;2023-02-01T09:53:37;5.50;99.90
5023;DHT22;2530;47.990;7.866;2023-02-01T09:59:47;5.70;99.90
5023;DHT22;2530;47.990;7.866;2023-02-01T10:02:12;5.90;99.90
5023;DHT22;2530;47.990;7.866;2023-02-01T10:04:39;6.00;99.90
5023;DHT22;2530;47.990;7.866;2023-02-01T10:07:08;6.10;99.90
5023;DHT22;2530;47.990;7.866;2023-02-01T10:15:48;6.10;99.90
5023;DHT22;2530;47.990;7.866;2023-02-01T10:18:22;6.30;99.90
5023;DHT22;2530;47.990;7.866;2023-02-01T10:20:57;6.30;99.90
5023;DHT22;2530;47.990;7.866;2023-02-01T10:26:11;6.40;99.90
5023;DHT22;2530;47.990;7.866;2023-02-01T10:28:38;6.40;99.90
5023;DHT22;2530;47.990;7.866;2023-02-01T10:31:05;6.40;99.90
5023;DHT22;2530;47.990;7.866;2023-02-01T10:33:43;6.50;99.90
5023;DHT22;2530;47.990;7.866;2023-02-01T10:38:44;6.30;99.90
5023;DHT22;2530;47.990;7.866;2023-02-01T10:41:34;6.30;99.90
5023;DHT22;2530;47.990;7.866;2023-02-01T10:44:03;6.20;99.90
5023;DHT22;2530;47.990;7.866;2023-02-01T10:46:30;6.10;99.90
5023;DHT22;2530;47.990;7.866;2023-02-01T10:48:57;6.20;99.90
5023;DHT22;2530;47.990;7.866;2023-02-01T10:51:42;6.20;99.90
5023;DHT22;2530;47.990;7.866;2023-02-01T10:54:36;6.30;99.90
5023;DHT22;2530;47.990;7.866;2023-02-01T10:57:08;6.30;99.90
5023;DHT22;2530;47.990;7.866;2023-02-01T10:59:34;6.40;99.90
5023;DHT22;2530;47.990;7.866;2023-02-01T11:02:13;6.50;99.90
5023;DHT22;2530;47.990;7.866;2023-02-01T11:04:41;6.50;99.90
5023;DHT22;2530;47.990;7.866;2023-02-01T11:07:27;6.50;99.90
5023;DHT22;2530;47.990;7.866;2023-02-01T11:09:55;6.50;99.90
5023;DHT22;2530;47.990;7.866;2023-02-01T11:12:36;6.60;99.90
5023;DHT22;2530;47.990;7.866;2023-02-01T11:15:19;6.50;99.90
5023;DHT22;2530;47.990;7.866;2023-02-01T11:17:47;6.60;99.90
5023;DHT22;2530;47.990;7.866;2023-02-01T11:20:39;6.60;99.90
5023;DHT22;2530;47.990;7.866;2023-02-01T11:23:10;6.70;99.90
5023;DHT22;2530;47.990;7.866;2023-02-01T11:25:37;6.80;99.90
5023;DHT22;2530;47.990;7.866;2023-02-01T11:28:03;6.80;99.90
5023;DHT22;2530;47.990;7.866;2023-02-01T11:30:36;6.90;99.90
5023;DHT22;2530;47.990;7.866;2023-02-01T11:33:03;6.90;99.90
5023;DHT22;2530;47.990;7.866;2023-02-01T11:35:30;7.00;99.90
5023;DHT22;2530;47.990;7.866;2023-02-01T11:38:00;6.90;99.90
5023;DHT22;2530;47.990;7.866;2023-02-01T11:40:29;7.00;99.90
5023;DHT22;2530;47.990;7.866;2023-02-01T11:43:15;7.00;99.90
5023;DHT22;2530;47.990;7.866;2023-02-01T11:46:00;7.00;99.90
5023;DHT22;2530;47.990;7.866;2023-02-01T11:48:28;7.00;99.90
5023;DHT22;2530;47.990;7.866;2023-02-01T11:54:18;7.00;99.90
5023;DHT22;2530;47.990;7.866;2023-02-01T11:56:58;7.00;99.90
5023;DHT22;2530;47.990;7.866;2023-02-01T12:00:02;6.90;99.90
5023;DHT22;2530;47.990;7.866;2023-02-01T12:11:02;7.20;99.90
5023;DHT22;2530;47.990;7.866;2023-02-01T12:16:19;7.30;99.90
5023;DHT22;2530;47.990;7.866;2023-02-01T12:21:17;7.20;99.90
5023;DHT22;2530;47.990;7.866;2023-02-01T12:29:57;7.20;99.90
5023;DHT22;2530;47.990;7.866;2023-02-01T12:41:36;7.00;99.90
5023;DHT22;2530;47.990;7.866;2023-02-01T12:44:26;7.00;99.90
5023;DHT22;2530;47.990;7.866;2023-02-01T12:46:58;7.00;99.90
5023;DHT22;2530;47.990;7.866;2023-02-01T12:49:52;6.90;99.90
5023;DHT22;2530;47.990;7.866;2023-02-01T12:55:23;6.60;99.90
5023;DHT22;2530;47.990;7.866;2023-02-01T12:57:58;6.60;99.90
5023;DHT22;2530;47.990;7.866;2023-02-01T13:00:32;6.60;99.90
5023;DHT22;2530;47.990;7.866;2023-02-01T13:03:19;6.60;99.90
5023;DHT22;2530;47.990;7.866;2023-02-01T13:06:02;6.70;99.90
5023;DHT22;2530;47.990;7.866;2023-02-01T13:08:41;6.70;99.90
5023;DHT22;2530;47.990;7.866;2023-02-01T13:11:18;6.70;99.90
5023;DHT22;2530;47.990;7.866;2023-02-01T13:17:10;6.80;99.90
5023;DHT22;2530;47.990;7.866;2023-02-01T13:22:27;6.90;99.90
5023;DHT22;2530;47.990;7.866;2023-02-01T13:27:41;6.90;99.90
5023;DHT22;2530;47.990;7.866;2023-02-01T13:30:20;6.80;99.90
5023;DHT22;2530;47.990;7.866;2023-02-01T13:40:49;6.90;99.90
5023;DHT22;2530;47.990;7.866;2023-02-01T13:43:23;6.90;99.90
5023;DHT22;2530;47.990;7.866;2023-02-01T13:45:52;6.80;99.90
5023;DHT22;2530;47.990;7.866;2023-02-01T13:48:38;6.70;99.90
5023;DHT22;2530;47.990;7.866;2023-02-01T13:51:05;6.70;99.90
5023;DHT22;2530;47.990;7.866;2023-02-01T13:53:34;6.70;99.90
5023;DHT22;2530;47.990;7.866;2023-02-01T13:56:11;6.70;99.90
5023;DHT22;2530;47.990;7.866;2023-02-01T13:58:40;6.60;99.90
5023;DHT22;2530;47.990;7.866;2023-02-01T14:03:49;6.70;99.90
5023;DHT22;2530;47.990;7.866;2023-02-01T14:11:43;6.70;99.90
5023;DHT22;2530;47.990;7.866;2023-02-01T14:19:36;6.60;99.90
5023;DHT22;2530;47.990;7.866;2023-02-01T14:24:54;6.70;99.90
5023;DHT22;2530;47.990;7.866;2023-02-01T14:27:24;6.70;99.90
5023;DHT22;2530;47.990;7.866;2023-02-01T14:29:57;6.60;99.90
5023;DHT22;2530;47.990;7.866;2023-02-01T14:32:30;6.50;99.90
5023;DHT22;2530;47.990;7.866;2023-02-01T14:34:59;6.60;99.90
5023;DHT22;2530;47.990;7.866;2023-02-01T14:37:35;6.60;99.90
5023;DHT22;2530;47.990;7.866;2023-02-01T14:40:14;6.50;99.90
5023;DHT22;2530;47.990;7.866;2023-02-01T14:47:46;6.60;99.90
5023;DHT22;2530;47.990;7.866;2023-02-01T14:50:27;6.60;99.90
5023;DHT22;2530;47.990;7.866;2023-02-01T14:58:04;6.50;99.90
5023;DHT22;2530;47.990;7.866;2023-02-01T15:00:31;6.60;99.90
5023;DHT22;2530;47.990;7.866;2023-02-01T15:03:23;6.60;99.90
5023;DHT22;2530;47.990;7.866;2023-02-01T15:05:58;6.40;99.90
5023;DHT22;2530;47.990;7.866;2023-02-01T15:08:28;6.50;99.90
5023;DHT22;2530;47.990;7.866;2023-02-01T15:10:57;6.40;99.90
5023;DHT22;2530;47.990;7.866;2023-02-01T15:13:27;6.50;99.90
5023;DHT22;2530;47.990;7.866;2023-02-01T15:16:14;6.50;99.90
5023;DHT22;2530;47.990;7.866;2023-02-01T15:18:41;6.40;99.90
5023;DHT22;2530;47.990;7.866;2023-02-01T15:23:42;6.40;99.90
5023;DHT22;2530;47.990;7.866;2023-02-01T15:26:07;6.40;99.90
5023;DHT22;2530;47.990;7.866;2023-02-01T15:28:33;6.40;99.90
5023;DHT22;2530;47.990;7.866;2023-02-01T15:31:01;6.50;99.90
5023;DHT22;2530;47.990;7.866;2023-02-01T15:33:28;6.50;99.90
5023;DHT22;2530;47.990;7.866;2023-02-01T15:36:18;6.40;99.90
5023;DHT22;2530;47.990;7.866;2023-02-01T15:38:44;6.40;99.90
5023;DHT22;2530;47.990;7.866;2023-02-01T15:41:18;6.50;99.90
5023;DHT22;2530;47.990;7.866;2023-02-01T15:46:33;6.50;99.90
5023;DHT22;2530;47.990;7.866;2023-02-01T15:49:01;6.50;99.90
5023;DHT22;2530;47.990;7.866;2023-02-01T15:51:29;6.50;99.90
5023;DHT22;2530;47.990;7.866;2023-02-01T15:54:03;6.50;99.90
5023;DHT22;2530;47.990;7.866;2023-02-01T15:56:38;6.40;99.90
5023;DHT22;2530;47.990;7.866;2023-02-01T15:59:12;6.50;99.90
5023;DHT22;2530;47.990;7.866;2023-02-01T16:01:39;6.50;99.90
5023;DHT22;2530;47.990;7.866;2023-02-01T16:04:15;6.50;99.90
5023;DHT22;2530;47.990;7.866;2023-02-01T16:06:48;6.50;99.90
5023;DHT22;2530;47.990;7.866;2023-02-01T16:09:15;6.50;99.90
5023;DHT22;2530;47.990;7.866;2023-02-01T16:11:52;6.50;99.90
5023;DHT22;2530;47.990;7.866;2023-02-01T16:14:19;6.50;99.90
5023;DHT22;2530;47.990;7.866;2023-02-01T16:16:45;6.50;99.90
5023;DHT22;2530;47.990;7.866;2023-02-01T16:19:10;6.50;99.90
5023;DHT22;2530;47.990;7.866;2023-02-01T16:21:36;6.50;99.90
5023;DHT22;2530;47.990;7.866;2023-02-01T16:24:01;6.50;99.90
5023;DHT22;2530;47.990;7.866;2023-02-01T16:26:30;6.50;99.90
5023;DHT22;2530;47.990;7.866;2023-02-01T16:28:56;6.60;99.90
5023;DHT22;2530;47.990;7.866;2023-02-01T16:31:29;6.50;99.90
5023;DHT22;2530;47.990;7.866;2023-02-01T16:33:55;6.40;99.90
5023;DHT22;2530;47.990;7.866;2023-02-01T16:36:21;6.20;99.90
5023;DHT22;2530;47.990;7.866;2023-02-01T16:38:47;6.20;99.90
5023;DHT22;2530;47.990;7.866;2023-02-01T16:41:17;6.20;99.90
5023;DHT22;2530;47.990;7.866;2023-02-01T16:43:42;6.20;99.90
5023;DHT22;2530;47.990;7.866;2023-02-01T16:46:19;6.20;99.90
5023;DHT22;2530;47.990;7.866;2023-02-01T16:48:52;6.20;99.90
5023;DHT22;2530;47.990;7.866;2023-02-01T16:51:18;6.20;99.90
5023;DHT22;2530;47.990;7.866;2023-02-01T16:53:45;6.20;99.90
5023;DHT22;2530;47.990;7.866;2023-02-01T16:56:22;6.20;99.90
5023;DHT22;2530;47.990;7.866;2023-02-01T16:58:48;6.20;99.90
5023;DHT22;2530;47.990;7.866;2023-02-01T17:01:15;6.20;99.90
5023;DHT22;2530;47.990;7.866;2023-02-01T17:03:42;6.20;99.90
5023;DHT22;2530;47.990;7.866;2023-02-01T17:06:10;6.20;99.90
5023;DHT22;2530;47.990;7.866;2023-02-01T17:08:47;6.30;99.90
5023;DHT22;2530;47.990;7.866;2023-02-01T17:11:14;6.20;99.90
5023;DHT22;2530;47.990;7.866;2023-02-01T17:13:40;6.30;99.90
5023;DHT22;2530;47.990;7.866;2023-02-01T17:16:26;6.30;99.90
5023;DHT22;2530;47.990;7.866;2023-02-01T17:19:02;6.20;99.90
5023;DHT22;2530;47.990;7.866;2023-02-01T17:21:30;6.30;99.90
5023;DHT22;2530;47.990;7.866;2023-02-01T17:24:00;6.30;99.90
5023;DHT22;2530;47.990;7.866;2023-02-01T17:26:26;6.30;99.90
5023;DHT22;2530;47.990;7.866;2023-02-01T17:28:51;6.30;99.90
5023;DHT22;2530;47.990;7.866;2023-02-01T17:31:17;6.30;99.90
5023;DHT22;2530;47.990;7.866;2023-02-01T17:33:43;6.30;99.90
5023;DHT22;2530;47.990;7.866;2023-02-01T17:36:12;6.30;99.90
5023;DHT22;2530;47.990;7.866;2023-02-01T17:38:38;6.30;99.90
5023;DHT22;2530;47.990;7.866;2023-02-01T17:41:04;6.30;99.90
5023;DHT22;2530;47.990;7.866;2023-02-01T17:43:29;6.20;99.90
5023;DHT22;2530;47.990;7.866;2023-02-01T17:46:01;6.20;99.90
5023;DHT22;2530;47.990;7.866;2023-02-01T17:48:28;6.20;99.90
5023;DHT22;2530;47.990;7.866;2023-02-01T17:50:53;6.20;99.90
5023;DHT22;2530;47.990;7.866;2023-02-01T17:53:24;6.20;99.90
5023;DHT22;2530;47.990;7.866;2023-02-01T17:55:50;6.20;99.90
5023;DHT22;2530;47.990;7.866;2023-02-01T17:58:16;6.10;99.90
5023;DHT22;2530;47.990;7.866;2023-02-01T18:00:43;6.10;99.90
5023;DHT22;2530;47.990;7.866;2023-02-01T18:03:26;6.20;99.90
5023;DHT22;2530;47.990;7.866;2023-02-01T18:05:53;6.10;99.90
5023;DHT22;2530;47.990;7.866;2023-02-01T18:08:21;6.10;99.90
5023;DHT22;2530;47.990;7.866;2023-02-01T18:10:52;6.20;99.90
5023;DHT22;2530;47.990;7.866;2023-02-01T18:13:19;6.20;99.90
5023;DHT22;2530;47.990;7.866;2023-02-01T18:15:44;6.20;99.90
5023;DHT22;2530;47.990;7.866;2023-02-01T18:18:10;6.20;99.90
5023;DHT22;2530;47.990;7.866;2023-02-01T18:20:35;6.20;99.90
5023;DHT22;2530;47.990;7.866;2023-02-01T18:23:01;6.20;99.90
5023;DHT22;2530;47.990;7.866;2023-02-01T18:25:29;6.20;99.90
5023;DHT22;2530;47.990;7.866;2023-02-01T18:27:55;6.20;99.90
5023;DHT22;2530;47.990;7.866;2023-02-01T18:30:24;6.20;99.90
5023;DHT22;2530;47.990;7.866;2023-02-01T18:32:52;6.20;99.90
5023;DHT22;2530;47.990;7.866;2023-02-01T18:35:23;6.20;99.90
5023;DHT22;2530;47.990;7.866;2023-02-01T18:37:50;6.20;99.90
5023;DHT22;2530;47.990;7.866;2023-02-01T18:40:18;6.20;99.90
5023;DHT22;2530;47.990;7.866;2023-02-01T18:42:44;6.20;99.90
5023;DHT22;2530;47.990;7.866;2023-02-01T18:45:30;6.10;99.90